M I D A S
Marine Information and Data Acquisition System
Tripno 1137 of the Zeeleeuw from 2006-07-18 07:02:39 to 2006-07-18 11:51:59
Back to CruiseResearch ActivitiesStationsMapUnderway DataData graphs

EquipmentUnitsComment
TimeDGPSUTC
LatitudeDGPSDM.mWGS84
LongitudeDGPSDM.mWGS84
HeadingGyrodeg 
SOGDGPSknotsSpeed over ground
COGDGPSdegCourse over ground
DepthEcho soundermeters200 kHz
Missing or incorrect values are displayed as -999
Navigation data collected by the RV Zeeleeuw from 2006-07-18 07:03:06 to 2006-07-18 12:03:19
                                                                                    Next 1000 lines
Time Latitude Longitude Heading SOG COG Depth
2006-07-18 07:03:18 51°13.599 2°56.097 103.2 0.6 271 8
2006-07-18 07:03:23 51°13.599 2°56.094 102.7 1 276 8.3
2006-07-18 07:03:28 51°13.6 2°56.091 102.3 1.5 277 8.3
2006-07-18 07:03:33 51°13.6 2°56.086 102.4 1.8 278 9.2
2006-07-18 07:03:37 51°13.601 2°56.082 103 2.3 279 -999
2006-07-18 07:03:43 51°13.602 2°56.075 104.3 2.7 281 -999
2006-07-18 07:03:49 51°13.603 2°56.067 105.9 3 282 -999
2006-07-18 07:03:53 51°13.604 2°56.061 107.4 3.2 285 -999
2006-07-18 07:03:59 51°13.606 2°56.052 108.7 3.4 286 -999
2006-07-18 07:04:04 51°13.607 2°56.045 110.4 3.7 288 -999
2006-07-18 07:04:09 51°13.609 2°56.036 111.6 3.9 289 -999
2006-07-18 07:04:13 51°13.611 2°56.03 112.9 4 290 -999
2006-07-18 07:04:19 51°13.613 2°56.019 114.2 4.2 292 -999
2006-07-18 07:04:24 51°13.616 2°56.01 115.2 4.4 293 -999
2006-07-18 07:04:29 51°13.618 2°56.001 115.9 4.5 293 -999
2006-07-18 07:04:33 51°13.62 2°55.994 116.5 4.6 294 -999
2006-07-18 07:04:39 51°13.623 2°55.983 116.8 4.7 294 -999
2006-07-18 07:04:44 51°13.626 2°55.973 117.2 4.8 295 -999
2006-07-18 07:04:49 51°13.629 2°55.963 117.2 4.9 295 -999
2006-07-18 07:04:54 51°13.632 2°55.953 117.3 5 295 -999
2006-07-18 07:04:59 51°13.635 2°55.943 117.5 5.1 295 -999
2006-07-18 07:05:04 51°13.638 2°55.932 117.8 5.1 295 -999
2006-07-18 07:05:09 51°13.641 2°55.922 118.1 5.2 295 -999
2006-07-18 07:05:13 51°13.644 2°55.914 118.7 5.2 296 -999
2006-07-18 07:05:19 51°13.648 2°55.901 119.2 5.3 296 -999
2006-07-18 07:05:24 51°13.651 2°55.89 119.9 5.3 297 -999
2006-07-18 07:05:29 51°13.655 2°55.88 120.7 5.4 298 -999
2006-07-18 07:05:34 51°13.658 2°55.869 121.5 5.3 298 -999
2006-07-18 07:05:39 51°13.662 2°55.859 121.7 5.3 299 -999
2006-07-18 07:05:44 51°13.665 2°55.849 121.7 5.2 299 -999
2006-07-18 07:05:49 51°13.669 2°55.839 121.6 5.2 299 -999
2006-07-18 07:05:53 51°13.672 2°55.831 120.9 5.2 299 -999
2006-07-18 07:05:59 51°13.676 2°55.819 120.4 5.2 299 -999
2006-07-18 07:06:04 51°13.679 2°55.81 119.6 4.9 298 -999
2006-07-18 07:06:09 51°13.681 2°55.8 118.6 4.7 297 -999
2006-07-18 07:06:13 51°13.683 2°55.793 117.5 4.5 296 -999
2006-07-18 07:06:19 51°13.686 2°55.783 116.1 4.3 296 -999
2006-07-18 07:06:23 51°13.688 2°55.777 114.9 4.1 295 -999
2006-07-18 07:06:29 51°13.691 2°55.767 113.5 3.9 294 -999
2006-07-18 07:06:33 51°13.692 2°55.761 112 3.7 293 -999
2006-07-18 07:06:37 51°13.694 2°55.755 110.8 3.7 292 14
2006-07-18 07:06:42 51°13.695 2°55.748 109.3 3.6 292 14.4
2006-07-18 07:06:48 51°13.697 2°55.74 107.7 3.3 290 14.5
2006-07-18 07:06:53 51°13.698 2°55.734 106.2 2.9 290 14.5
2006-07-18 07:06:56 51°13.699 2°55.731 104.2 2.7 287 15.1
2006-07-18 07:07:03 51°13.701 2°55.724 101.8 2.5 286 15.8
2006-07-18 07:07:07 51°13.701 2°55.72 99.7 2.2 285 16.8
2006-07-18 07:07:12 51°13.701 2°55.716 97.9 1.9 283 17.8
2006-07-18 07:07:17 51°13.702 2°55.713 95 1.5 282 18.1
2006-07-18 07:07:22 51°13.702 2°55.71 92.2 1.3 282 -999
2006-07-18 07:07:29 51°13.703 2°55.707 88.9 1 281 -999
2006-07-18 07:07:33 51°13.703 2°55.706 85.5 0.8 286 -999
2006-07-18 07:07:39 51°13.704 2°55.705 82.3 0.5 293 -999
2006-07-18 07:07:43 51°13.704 2°55.704 78.7 0.4 320 18.3
2006-07-18 07:07:48 51°13.704 2°55.704 75.4 0.3 340 18.4
2006-07-18 07:07:53 51°13.705 2°55.705 71.3 0.4 16 18.5
2006-07-18 07:07:58 51°13.706 2°55.706 67.8 0.5 21 18
2006-07-18 07:08:03 51°13.706 2°55.706 62.4 0.7 34 4.7
2006-07-18 07:08:08 51°13.707 2°55.708 58.4 0.8 37 14.4
2006-07-18 07:08:13 51°13.708 2°55.709 52.7 0.9 30 14.3
2006-07-18 07:08:18 51°13.71 2°55.709 49.1 0.9 27 14.2
2006-07-18 07:08:23 51°13.711 2°55.711 45.7 1.1 30 14.1
2006-07-18 07:08:28 51°13.713 2°55.712 42 1.1 30 14
2006-07-18 07:08:32 51°13.714 2°55.713 37.6 1.5 25 13.7
2006-07-18 07:08:37 51°13.717 2°55.714 32.1 1.9 19 13.4
2006-07-18 07:08:41 51°13.719 2°55.715 24.7 2.2 14 13.4
2006-07-18 07:08:48 51°13.724 2°55.716 18.3 2.5 7 13.2
2006-07-18 07:08:52 51°13.727 2°55.716 11.6 2.8 3 13
2006-07-18 07:08:58 51°13.733 2°55.715 4.3 3.1 357 12.6
2006-07-18 07:09:03 51°13.737 2°55.713 357.1 3.3 351 12.4
2006-07-18 07:09:08 51°13.743 2°55.711 351.8 3.7 344 12.2
2006-07-18 07:09:13 51°13.748 2°55.707 345.6 4 340 12.1
2006-07-18 07:09:18 51°13.754 2°55.703 340.4 4.4 335 12
2006-07-18 07:09:23 51°13.759 2°55.698 336.6 4.7 334 12.2
2006-07-18 07:09:28 51°13.766 2°55.692 335.2 5 331 12.3
2006-07-18 07:09:33 51°13.772 2°55.687 334.2 5.2 332 12.3
2006-07-18 07:09:36 51°13.776 2°55.683 334.2 5.4 332 12.3
2006-07-18 07:09:42 51°13.784 2°55.676 334.1 5.7 332 12.3
2006-07-18 07:09:48 51°13.793 2°55.669 334.1 5.9 331 12.4
2006-07-18 07:09:53 51°13.801 2°55.663 334.2 6.1 332 12.4
2006-07-18 07:09:57 51°13.807 2°55.658 335.1 6.2 333 12.4
2006-07-18 07:10:01 51°13.813 2°55.653 335.8 6.4 333 12.4
2006-07-18 07:10:08 51°13.824 2°55.643 336 6.4 333 12.8
2006-07-18 07:10:13 51°13.832 2°55.637 336 6.6 334 12.7
2006-07-18 07:10:17 51°13.839 2°55.632 336.3 6.7 334 12.5
2006-07-18 07:10:23 51°13.849 2°55.624 336.5 6.8 334 12.4
2006-07-18 07:10:28 51°13.858 2°55.617 336.7 6.8 334 12.2
2006-07-18 07:10:32 51°13.865 2°55.612 337 6.9 334 12.4
2006-07-18 07:10:36 51°13.872 2°55.606 337.2 7 334 12.5
2006-07-18 07:10:43 51°13.884 2°55.597 337.5 7.1 335 12.3
2006-07-18 07:10:47 51°13.891 2°55.592 337.7 7.1 334 12.6
2006-07-18 07:10:53 51°13.902 2°55.583 337.7 7.2 334 12.7
2006-07-18 07:10:58 51°13.911 2°55.576 337.7 7.2 334 12.7
2006-07-18 07:11:03 51°13.92 2°55.569 337.9 7.2 334 12.6
2006-07-18 07:11:08 51°13.929 2°55.562 338 7.3 335 12.7
2006-07-18 07:11:13 51°13.938 2°55.555 338 7.3 335 12.9
2006-07-18 07:11:18 51°13.947 2°55.548 338.2 7.3 335 12.8
2006-07-18 07:11:23 51°13.956 2°55.541 338.9 7.3 335 12.8
2006-07-18 07:11:28 51°13.966 2°55.534 338.9 7.3 335 12.9
2006-07-18 07:11:32 51°13.973 2°55.529 338.8 7.4 335 12.9
2006-07-18 07:11:37 51°13.983 2°55.522 338.9 7.4 335 12.8
2006-07-18 07:11:41 51°13.99 2°55.517 339.2 7.4 336 12.8
2006-07-18 07:11:48 51°14.003 2°55.507 339.2 7.4 335 12.8
2006-07-18 07:11:53 51°14.012 2°55.5 339.2 7.1 335 12.7
2006-07-18 07:11:57 51°14.019 2°55.495 339.2 7 335 12.5
2006-07-18 07:12:02 51°14.027 2°55.489 339.5 6.8 336 12.5
2006-07-18 07:12:07 51°14.036 2°55.483 339.9 6.7 336 12.4
2006-07-18 07:12:13 51°14.046 2°55.476 340.5 6.5 337 12.4
2006-07-18 07:12:17 51°14.052 2°55.472 340.9 6.4 337 12.5
2006-07-18 07:12:20 51°14.057 2°55.469 340.8 6.4 338 12.5
2006-07-18 07:12:28 51°14.07 2°55.46 340.4 6.3 337 12.5
2006-07-18 07:12:33 51°14.078 2°55.454 339.9 6.3 337 12.5
2006-07-18 07:12:38 51°14.086 2°55.449 339.9 6.3 337 12.5
2006-07-18 07:12:43 51°14.094 2°55.443 339.7 6.4 337 12.4
2006-07-18 07:12:48 51°14.102 2°55.437 339.4 6.3 336 12.5
2006-07-18 07:12:53 51°14.11 2°55.431 339 6.3 336 12.5
2006-07-18 07:12:56 51°14.114 2°55.427 338.6 6.4 335 12.5
2006-07-18 07:13:02 51°14.124 2°55.42 338.1 6.4 334 12.4
2006-07-18 07:13:08 51°14.134 2°55.412 337.3 6.5 333 12.5
2006-07-18 07:13:13 51°14.142 2°55.405 335.9 6.6 332 12.4
2006-07-18 07:13:17 51°14.148 2°55.399 334.4 6.7 331 12.5
2006-07-18 07:13:23 51°14.158 2°55.389 333.1 6.8 329 12.4
2006-07-18 07:13:28 51°14.166 2°55.382 332.7 6.9 329 12.4
2006-07-18 07:13:33 51°14.174 2°55.373 332.4 6.9 328 12.4
2006-07-18 07:13:38 51°14.182 2°55.365 331.3 7 327 12.4
2006-07-18 07:13:43 51°14.19 2°55.356 329.7 7.1 325 12.4
2006-07-18 07:13:48 51°14.198 2°55.346 328 7.1 324 12.4
2006-07-18 07:13:53 51°14.206 2°55.337 327.2 7.1 323 12.4
2006-07-18 07:13:58 51°14.214 2°55.327 326.3 7.2 322 12.4
2006-07-18 07:14:03 51°14.222 2°55.316 325.1 7.6 321 12.4
2006-07-18 07:14:07 51°14.229 2°55.307 323.9 7.9 320 12.4
2006-07-18 07:14:12 51°14.237 2°55.295 322.6 8.1 319 12.4
2006-07-18 07:14:17 51°14.246 2°55.282 321.4 8.5 317 12.3
2006-07-18 07:14:20 51°14.251 2°55.274 320.2 8.7 315 12.3
2006-07-18 07:14:28 51°14.265 2°55.251 319.7 8.9 315 12.4
2006-07-18 07:14:32 51°14.272 2°55.24 319.1 9.1 314 12.3
2006-07-18 07:14:37 51°14.281 2°55.225 317.6 9.2 313 12.3
2006-07-18 07:14:42 51°14.289 2°55.209 316.2 9.4 311 12.4
2006-07-18 07:14:48 51°14.3 2°55.191 315.5 9.5 311 12.4
2006-07-18 07:14:53 51°14.308 2°55.175 315 9.5 310 12.3
2006-07-18 07:14:57 51°14.315 2°55.162 314.1 9.6 310 12.2
2006-07-18 07:15:03 51°14.325 2°55.142 313.5 9.6 309 12.4
2006-07-18 07:15:08 51°14.334 2°55.125 313.4 9.7 309 12.4
2006-07-18 07:15:12 51°14.34 2°55.111 312.3 9.7 307 12.5
2006-07-18 07:15:17 51°14.349 2°55.094 310.8 9.8 306 12.6
2006-07-18 07:15:22 51°14.357 2°55.077 310.2 9.8 306 12.5
2006-07-18 07:15:27 51°14.364 2°55.059 309.1 9.8 305 12.6
2006-07-18 07:15:32 51°14.372 2°55.041 308.7 9.9 306 12.6
2006-07-18 07:15:36 51°14.379 2°55.027 309.9 9.9 307 12.6
2006-07-18 07:15:42 51°14.389 2°55.007 310.6 9.9 307 12.6
2006-07-18 07:15:48 51°14.399 2°54.987 310.6 9.8 309 12.8
2006-07-18 07:15:53 51°14.408 2°54.971 311.2 9.8 311 12.9
2006-07-18 07:15:57 51°14.415 2°54.957 311.4 9.8 311 12.9
2006-07-18 07:16:00 51°14.421 2°54.948 310.7 9.7 311 12.8
2006-07-18 07:16:08 51°14.434 2°54.922 309.6 9.7 310 12.8
2006-07-18 07:16:13 51°14.442 2°54.905 307.7 9.7 307 12.8
2006-07-18 07:16:18 51°14.45 2°54.888 306 9.7 307 12.7
2006-07-18 07:16:23 51°14.458 2°54.87 305.3 9.7 307 12.7
2006-07-18 07:16:28 51°14.466 2°54.853 304.9 9.7 307 12.6
2006-07-18 07:16:33 51°14.475 2°54.836 304.8 9.7 307 12.5
2006-07-18 07:16:37 51°14.481 2°54.822 304.2 9.7 306 12.3
2006-07-18 07:16:42 51°14.488 2°54.804 302.7 9.8 305 12.2
2006-07-18 07:16:47 51°14.496 2°54.786 300.7 9.9 302 12.4
2006-07-18 07:16:53 51°14.505 2°54.763 299.8 10 302 12.2
2006-07-18 07:16:57 51°14.51 2°54.747 299 10.2 301 12.3
2006-07-18 07:17:03 51°14.518 2°54.723 297.6 10.4 299 12.1
2006-07-18 07:17:07 51°14.524 2°54.706 297.3 10.5 299 12.2
2006-07-18 07:17:12 51°14.53 2°54.685 296 10.6 295 12.1
2006-07-18 07:17:18 51°14.538 2°54.66 295.1 10.7 296 12
2006-07-18 07:17:23 51°14.544 2°54.638 293.9 10.9 294 12
2006-07-18 07:17:27 51°14.549 2°54.62 292.5 11 294 12.1
2006-07-18 07:17:33 51°14.558 2°54.594 293.3 11 296 12
2006-07-18 07:17:37 51°14.563 2°54.576 295 11.1 297 12.1
2006-07-18 07:17:43 51°14.572 2°54.549 295.7 11.3 297 12
2006-07-18 07:17:47 51°14.578 2°54.532 296.1 11.3 297 12
2006-07-18 07:17:52 51°14.585 2°54.509 296.2 11.4 298 12
2006-07-18 07:17:57 51°14.593 2°54.487 296.3 11.5 298 12
2006-07-18 07:18:02 51°14.601 2°54.465 296.7 11.6 299 12
2006-07-18 07:18:08 51°14.61 2°54.438 297.3 11.7 299 11.9
2006-07-18 07:18:13 51°14.618 2°54.415 297.5 11.7 299 11.9
2006-07-18 07:18:17 51°14.625 2°54.397 297.5 11.8 299 12
2006-07-18 07:18:23 51°14.635 2°54.371 298.3 11.9 301 12
2006-07-18 07:18:28 51°14.644 2°54.349 300.1 11.9 303 11.9
2006-07-18 07:18:32 51°14.651 2°54.331 300.4 11.8 302 11.9
2006-07-18 07:18:37 51°14.66 2°54.309 299.9 11.9 302 11.9
2006-07-18 07:18:42 51°14.669 2°54.286 299.8 11.9 302 12
2006-07-18 07:18:48 51°14.679 2°54.26 299.8 11.9 302 11.9
2006-07-18 07:18:52 51°14.686 2°54.242 300.1 11.9 303 11.9
2006-07-18 07:18:56 51°14.694 2°54.225 300.4 11.9 302 11.9
2006-07-18 07:19:02 51°14.705 2°54.198 300.6 11.9 303 11.8
2006-07-18 07:19:07 51°14.713 2°54.176 300.6 11.9 302 11.8
2006-07-18 07:19:13 51°14.724 2°54.15 300.7 11.9 303 11.8
2006-07-18 07:19:18 51°14.733 2°54.128 299.9 11.8 301 11.8
2006-07-18 07:19:23 51°14.741 2°54.105 299.7 11.9 302 11.7
2006-07-18 07:19:28 51°14.75 2°54.083 299.7 11.9 301 11.7
2006-07-18 07:19:32 51°14.757 2°54.065 299.7 12 302 11.7
2006-07-18 07:19:38 51°14.767 2°54.038 300.1 12 302 11.6
2006-07-18 07:19:43 51°14.776 2°54.015 300.7 12 302 11.6
2006-07-18 07:19:46 51°14.782 2°54.002 301 12 302 11.5
2006-07-18 07:19:52 51°14.793 2°53.975 301.2 12.1 302 11.5
2006-07-18 07:19:57 51°14.802 2°53.952 301.6 12.1 302 11.4
2006-07-18 07:20:03 51°14.812 2°53.925 301.5 12.1 302 11.3
2006-07-18 07:20:08 51°14.821 2°53.902 300.7 12.1 301 11.3
2006-07-18 07:20:13 51°14.829 2°53.879 300.2 12.1 301 11.3
2006-07-18 07:20:17 51°14.836 2°53.861 299.3 12 299 11.3
2006-07-18 07:20:22 51°14.844 2°53.837 298 12 298 11.2
2006-07-18 07:20:26 51°14.849 2°53.818 296.3 12 296 11.3
2006-07-18 07:20:32 51°14.857 2°53.789 294.9 12 294 11.3
2006-07-18 07:20:37 51°14.864 2°53.765 294 11.9 293 11.2
2006-07-18 07:20:42 51°14.87 2°53.741 293.1 11.9 293 11.2
2006-07-18 07:20:47 51°14.877 2°53.716 292.4 11.9 292 11.3
2006-07-18 07:20:53 51°14.884 2°53.687 292 11.9 292 11.3
2006-07-18 07:20:56 51°14.888 2°53.673 291.6 11.9 292 11.3
2006-07-18 07:21:02 51°14.895 2°53.643 291.7 11.9 292 11.3
2006-07-18 07:21:06 51°14.9 2°53.624 292.8 12 294 11.3
2006-07-18 07:21:13 51°14.91 2°53.59 294 12 295 11.3
2006-07-18 07:21:18 51°14.918 2°53.567 295.8 12 297 11.4
2006-07-18 07:21:23 51°14.926 2°53.543 297.4 12.1 298 11.4
2006-07-18 07:21:28 51°14.934 2°53.52 298.3 12.1 299 11.4
2006-07-18 07:21:32 51°14.941 2°53.502 299.5 12.1 300 11.5
2006-07-18 07:21:38 51°14.952 2°53.474 300.7 12.1 301 11.6
2006-07-18 07:21:43 51°14.961 2°53.452 301.3 12.1 302 11.5
2006-07-18 07:21:48 51°14.97 2°53.429 301.7 12.1 302 11.5
2006-07-18 07:21:53 51°14.978 2°53.406 301.5 12.1 301 11.6
2006-07-18 07:21:57 51°14.985 2°53.388 301.1 12.1 301 11.7
2006-07-18 07:22:01 51°14.991 2°53.369 299.9 12 298 11.8
2006-07-18 07:22:07 51°15.001 2°53.341 299 12.1 299 11.8
2006-07-18 07:22:12 51°15.009 2°53.317 298.4 12.1 298 11.8
2006-07-18 07:22:17 51°15.016 2°53.294 298 12 298 11.8
2006-07-18 07:22:20 51°15.021 2°53.279 297.1 12 295 11.8
2006-07-18 07:22:28 51°15.032 2°53.241 296.1 12 296 12
2006-07-18 07:22:33 51°15.039 2°53.217 295.7 12 295 11.9
2006-07-18 07:22:37 51°15.045 2°53.197 295.4 12.1 295 11.9
2006-07-18 07:22:42 51°15.052 2°53.173 296 12.1 295 11.9
2006-07-18 07:22:48 51°15.061 2°53.144 296.7 12.2 296 11.9
2006-07-18 07:22:53 51°15.069 2°53.12 297.5 12.2 297 11.9
2006-07-18 07:22:58 51°15.077 2°53.097 298.4 12.2 298 11.8
2006-07-18 07:23:03 51°15.085 2°53.073 299.2 12.2 299 11.9
2006-07-18 07:23:08 51°15.094 2°53.05 299.7 12.2 299 12
2006-07-18 07:23:13 51°15.102 2°53.026 299.8 12.3 299 12.1
2006-07-18 07:23:17 51°15.108 2°53.007 299.7 12.2 299 12.1
2006-07-18 07:23:22 51°15.117 2°52.983 299.2 12.2 298 12.1
2006-07-18 07:23:28 51°15.126 2°52.955 298.5 12.2 298 12.2
2006-07-18 07:23:33 51°15.134 2°52.931 297.6 12.2 297 12.2
2006-07-18 07:23:38 51°15.141 2°52.907 296.9 12.2 296 12.3
2006-07-18 07:23:43 51°15.148 2°52.883 296.4 12.2 296 12.3
2006-07-18 07:23:48 51°15.156 2°52.859 296.2 12.1 296 12.4
2006-07-18 07:23:52 51°15.161 2°52.839 295.9 12.1 296 12.4
2006-07-18 07:23:58 51°15.17 2°52.81 295.5 12.1 295 12.4
2006-07-18 07:24:02 51°15.176 2°52.791 295.5 12.1 295 12.4
2006-07-18 07:24:08 51°15.185 2°52.762 295.8 12.1 296 12.6
2006-07-18 07:24:13 51°15.192 2°52.738 295.9 12.1 296 12.5
2006-07-18 07:24:17 51°15.198 2°52.719 296 12.1 296 12.5
2006-07-18 07:24:20 51°15.202 2°52.704 296.1 12.1 296 12.6
2006-07-18 07:24:28 51°15.214 2°52.666 296.1 12.1 296 12.6
2006-07-18 07:24:33 51°15.222 2°52.642 296.1 12.1 296 12.7
2006-07-18 07:24:38 51°15.229 2°52.618 296.3 12.1 296 12.7
2006-07-18 07:24:43 51°15.237 2°52.595 296.5 12.1 297 12.7
2006-07-18 07:24:48 51°15.244 2°52.571 296.2 12.1 296 12.8
2006-07-18 07:24:53 51°15.252 2°52.547 296.4 12.1 297 12.8
2006-07-18 07:24:56 51°15.257 2°52.533 296.4 12.1 297 12.8
2006-07-18 07:25:02 51°15.266 2°52.504 296.6 12.1 297 12.8
2006-07-18 07:25:08 51°15.275 2°52.476 296.8 12 297 12.9
2006-07-18 07:25:13 51°15.283 2°52.452 296.8 12.1 297 12.9
2006-07-18 07:25:17 51°15.289 2°52.434 296.8 12 297 13
2006-07-18 07:25:22 51°15.296 2°52.41 296.6 12 297 13
2006-07-18 07:25:28 51°15.305 2°52.381 296.4 12 297 13
2006-07-18 07:25:32 51°15.311 2°52.362 295.8 12 296 13.2
2006-07-18 07:25:36 51°15.317 2°52.343 295.3 12 296 13.2
2006-07-18 07:25:43 51°15.327 2°52.31 295.4 12.1 296 13.2
2006-07-18 07:25:48 51°15.335 2°52.286 295.7 12 296 13.3
2006-07-18 07:25:53 51°15.342 2°52.262 296.1 12 296 13.3
2006-07-18 07:25:58 51°15.35 2°52.238 295.9 12 296 13.4
2006-07-18 07:26:03 51°15.357 2°52.215 295.9 12 296 13.4
2006-07-18 07:26:08 51°15.364 2°52.191 295.8 12 296 13.5
2006-07-18 07:26:13 51°15.371 2°52.167 295.5 12 296 13.5
2006-07-18 07:26:17 51°15.377 2°52.147 294.7 12.1 294 13.6
2006-07-18 07:26:22 51°15.383 2°52.123 293.6 12 293 13.6
2006-07-18 07:26:26 51°15.389 2°52.103 293.1 12.1 293 13.6
2006-07-18 07:26:32 51°15.396 2°52.074 292.5 12.1 293 13.7
2006-07-18 07:26:37 51°15.403 2°52.049 292.5 12.1 293 13.7
2006-07-18 07:26:43 51°15.411 2°52.02 292.8 12.1 293 13.8
2006-07-18 07:26:48 51°15.418 2°51.996 292.9 12.1 294 13.8
2006-07-18 07:26:52 51°15.423 2°51.977 293.4 12.1 294 13.8
2006-07-18 07:26:57 51°15.431 2°51.952 294 12.1 295 13.9
2006-07-18 07:27:02 51°15.438 2°51.928 294.6 12.1 296 13.9
2006-07-18 07:27:08 51°15.447 2°51.9 294.6 12.1 295 14
2006-07-18 07:27:12 51°15.452 2°51.88 294.4 12 295 14
2006-07-18 07:27:18 51°15.46 2°51.851 293.7 12 294 14
2006-07-18 07:27:23 51°15.466 2°51.827 292.9 12 293 14
2006-07-18 07:27:28 51°15.473 2°51.803 292.2 11.9 292 14
2006-07-18 07:27:33 51°15.479 2°51.778 291.6 11.9 292 14.2
2006-07-18 07:27:36 51°15.482 2°51.763 290.7 11.9 290 14.1
2006-07-18 07:27:43 51°15.489 2°51.729 289.6 11.9 290 14.1
2006-07-18 07:27:47 51°15.494 2°51.709 289 11.9 289 14.2
2006-07-18 07:27:53 51°15.5 2°51.679 289 11.9 289 14.2
2006-07-18 07:27:58 51°15.506 2°51.654 289 11.9 289 14.2
2006-07-18 07:28:03 51°15.511 2°51.63 289 11.9 289 14.2
2006-07-18 07:28:08 51°15.516 2°51.605 288.8 11.9 289 14.3
2006-07-18 07:28:13 51°15.522 2°51.58 288.6 11.9 289 14.3
2006-07-18 07:28:17 51°15.526 2°51.56 288.6 11.9 289 14.3
2006-07-18 07:28:22 51°15.532 2°51.536 290.2 11.9 291 14.4
2006-07-18 07:28:28 51°15.54 2°51.507 291.5 12 292 14.4
2006-07-18 07:28:33 51°15.546 2°51.482 292.5 12 293 14.3
2006-07-18 07:28:36 51°15.55 2°51.468 293.2 12 294 14.4
2006-07-18 07:28:43 51°15.56 2°51.434 293.9 12 294 14.4
2006-07-18 07:28:48 51°15.567 2°51.41 294.3 12.1 295 14.4
2006-07-18 07:28:52 51°15.573 2°51.39 294.8 12.1 295 14.4
2006-07-18 07:28:58 51°15.582 2°51.361 295 12.1 295 14.5
2006-07-18 07:29:03 51°15.589 2°51.337 295.1 12.1 295 14.5
2006-07-18 07:29:07 51°15.595 2°51.318 295.1 12.1 295 14.4
2006-07-18 07:29:13 51°15.603 2°51.289 294.7 12.1 295 14.4
2006-07-18 07:29:17 51°15.609 2°51.27 294.4 12.1 295 14.5
2006-07-18 07:29:23 51°15.617 2°51.24 294.4 12.2 295 14.5
2006-07-18 07:29:28 51°15.624 2°51.216 293.9 12.1 294 14.5
2006-07-18 07:29:33 51°15.631 2°51.191 293.7 12.1 294 14.5
2006-07-18 07:29:38 51°15.638 2°51.167 293.7 12.1 294 14.5
2006-07-18 07:29:43 51°15.645 2°51.142 293.2 12.1 294 14.5
2006-07-18 07:29:48 51°15.652 2°51.118 293.1 12.1 294 14.5
2006-07-18 07:29:53 51°15.659 2°51.093 293.1 12.2 294 14.6
2006-07-18 07:29:57 51°15.664 2°51.074 293.6 12.2 294 14.6
2006-07-18 07:30:02 51°15.672 2°51.049 293.9 12.2 295 14.5
2006-07-18 07:30:07 51°15.679 2°51.025 294.3 12.2 295 14.5
2006-07-18 07:30:12 51°15.686 2°51 294.3 12.2 295 14.6
2006-07-18 07:30:18 51°15.694 2°50.971 294.3 12.2 295 14.5
2006-07-18 07:30:23 51°15.701 2°50.946 293.9 12.2 294 14.6
2006-07-18 07:30:26 51°15.705 2°50.932 293.9 12.2 295 14.6
2006-07-18 07:30:33 51°15.715 2°50.898 293.9 12.2 295 14.5
2006-07-18 07:30:38 51°15.722 2°50.873 293.9 12.2 295 14.6
2006-07-18 07:30:43 51°15.729 2°50.849 293.8 12.2 294 14.6
2006-07-18 07:30:48 51°15.736 2°50.824 293.7 12.2 294 14.7
2006-07-18 07:30:52 51°15.742 2°50.805 293.5 12.2 294 14.5
2006-07-18 07:30:58 51°15.75 2°50.775 293.5 12.2 295 14.5
2006-07-18 07:31:03 51°15.757 2°50.751 293.6 12.1 295 14.6
2006-07-18 07:31:08 51°15.765 2°50.727 293.7 12.1 294 14.6
2006-07-18 07:31:13 51°15.771 2°50.702 293.6 12.1 294 14.6
2006-07-18 07:31:17 51°15.777 2°50.683 293.4 12.2 294 14.6
2006-07-18 07:31:22 51°15.784 2°50.658 293.3 12.1 294 14.6
2006-07-18 07:31:28 51°15.792 2°50.629 293.3 12.1 294 14.5
2006-07-18 07:31:33 51°15.799 2°50.605 293.2 12.1 295 14.6
2006-07-18 07:31:36 51°15.803 2°50.59 293.3 12.1 294 14.6
2006-07-18 07:31:43 51°15.813 2°50.556 293.6 12.2 295 14.7
2006-07-18 07:31:47 51°15.819 2°50.537 293.9 12.2 295 14.6
2006-07-18 07:31:53 51°15.828 2°50.508 294 12.1 295 14.6
2006-07-18 07:31:58 51°15.835 2°50.483 294.1 12.1 295 14.6
2006-07-18 07:32:03 51°15.842 2°50.459 293.6 12.1 294 14.5
2006-07-18 07:32:08 51°15.849 2°50.434 293.5 12.1 295 14.4
2006-07-18 07:32:13 51°15.855 2°50.41 293.2 12.1 294 14.3
2006-07-18 07:32:17 51°15.861 2°50.391 293.3 12.1 294 14.2
2006-07-18 07:32:22 51°15.868 2°50.366 293.3 12.1 294 14.1
2006-07-18 07:32:28 51°15.877 2°50.337 293.6 12.1 295 13.8
2006-07-18 07:32:33 51°15.884 2°50.313 293.8 12.1 295 13.7
2006-07-18 07:32:36 51°15.888 2°50.299 294.2 12.1 295 13.4
2006-07-18 07:32:43 51°15.898 2°50.265 294.5 12.1 295 13.3
2006-07-18 07:32:48 51°15.905 2°50.241 294.1 12 294 13
2006-07-18 07:32:52 51°15.91 2°50.221 293.5 12 294 12.8
2006-07-18 07:32:58 51°15.918 2°50.192 292.9 11.9 293 12.6
2006-07-18 07:33:03 51°15.924 2°50.168 292.6 12 293 12.5
2006-07-18 07:33:08 51°15.93 2°50.143 292.2 12 292 12.4
2006-07-18 07:33:13 51°15.936 2°50.119 292.2 11.9 292 12.3
2006-07-18 07:33:18 51°15.942 2°50.094 291.7 11.9 291 12.1
2006-07-18 07:33:23 51°15.948 2°50.07 291.3 11.9 292 12.1
2006-07-18 07:33:28 51°15.955 2°50.045 292 12 292 12
2006-07-18 07:33:32 51°15.96 2°50.025 292.6 12 293 12
2006-07-18 07:33:37 51°15.966 2°50.001 293.2 12 293 12
2006-07-18 07:33:41 51°15.971 2°49.981 293.5 12.1 293 12
2006-07-18 07:33:47 51°15.979 2°49.952 293.7 12.1 293 12
2006-07-18 07:33:53 51°15.987 2°49.922 293.7 12.1 293 12.1
2006-07-18 07:33:56 51°15.991 2°49.907 293.7 12.2 293 12.1
2006-07-18 07:34:02 51°15.999 2°49.877 293.7 12.1 293 12.2
2006-07-18 07:34:06 51°16.004 2°49.857 293.8 12.1 293 12.2
2006-07-18 07:34:12 51°16.011 2°49.827 293.9 12.2 293 12.3
2006-07-18 07:34:17 51°16.018 2°49.803 293.9 12.2 293 12.3
2006-07-18 07:34:23 51°16.026 2°49.773 293.9 12.2 293 12.3
2006-07-18 07:34:28 51°16.032 2°49.748 293.9 12.2 293 12.4
2006-07-18 07:34:32 51°16.038 2°49.728 294 12.2 293 12.5
2006-07-18 07:34:38 51°16.046 2°49.698 294.1 12.2 293 12.5
2006-07-18 07:34:43 51°16.052 2°49.674 294.1 12.2 293 12.5
2006-07-18 07:34:48 51°16.059 2°49.649 294 12.2 293 12.6
2006-07-18 07:34:53 51°16.066 2°49.624 294.2 12.2 294 12.7
2006-07-18 07:34:57 51°16.071 2°49.605 294.5 12.2 294 12.6
2006-07-18 07:35:02 51°16.078 2°49.58 294.6 12.2 294 12.8
2006-07-18 07:35:08 51°16.086 2°49.551 294.7 12.2 294 12.9
2006-07-18 07:35:13 51°16.093 2°49.526 294.9 12.2 294 12.9
2006-07-18 07:35:17 51°16.099 2°49.506 295 12.2 294 13
2006-07-18 07:35:22 51°16.106 2°49.482 295 12.2 294 13
2006-07-18 07:35:27 51°16.112 2°49.457 294.9 12.2 294 13.1
2006-07-18 07:35:32 51°16.119 2°49.433 294.7 12.2 294 13.2
2006-07-18 07:35:38 51°16.127 2°49.403 294.5 12.1 294 13.3
2006-07-18 07:35:42 51°16.132 2°49.383 294.1 12.2 293 13.5
2006-07-18 07:35:48 51°16.14 2°49.354 294 12.1 294 13.6
2006-07-18 07:35:53 51°16.147 2°49.329 293.7 12.1 293 13.6
2006-07-18 07:35:57 51°16.152 2°49.309 293.2 12.1 293 13.7
2006-07-18 07:36:02 51°16.158 2°49.285 293 12.1 293 13.8
2006-07-18 07:36:07 51°16.165 2°49.26 292.9 12.1 293 13.9
2006-07-18 07:36:12 51°16.172 2°49.235 293.3 12.1 294 14
2006-07-18 07:36:17 51°16.178 2°49.211 293.8 12.1 294 14.1
2006-07-18 07:36:23 51°16.187 2°49.182 293.9 12.1 294 14.2
2006-07-18 07:36:28 51°16.193 2°49.157 294 12.1 294 14.3
2006-07-18 07:36:33 51°16.2 2°49.133 293.3 12.1 293 14.7
2006-07-18 07:36:38 51°16.206 2°49.108 292.2 12 292 14.9
2006-07-18 07:36:43 51°16.212 2°49.083 291.3 12 291 15.2
2006-07-18 07:36:48 51°16.217 2°49.058 290.3 12 290 15.4
2006-07-18 07:36:52 51°16.221 2°49.038 289.3 12 289 15.6
2006-07-18 07:36:57 51°16.226 2°49.013 288.3 11.9 288 15.7
2006-07-18 07:37:01 51°16.23 2°48.993 287.5 11.9 287 15.9
2006-07-18 07:37:08 51°16.237 2°48.958 287.4 11.9 288 16
2006-07-18 07:37:12 51°16.241 2°48.938 287.3 11.9 288 16.2
2006-07-18 07:37:17 51°16.246 2°48.912 287.2 11.9 288 16.3
2006-07-18 07:37:21 51°16.25 2°48.892 287.4 11.9 288 16.5
2006-07-18 07:37:27 51°16.257 2°48.863 288.2 11.9 290 16.7
2006-07-18 07:37:33 51°16.264 2°48.833 289.5 11.9 291 16.9
2006-07-18 07:37:38 51°16.27 2°48.808 290.5 12 291 16.9
2006-07-18 07:37:43 51°16.277 2°48.784 291.2 12 292 17
2006-07-18 07:37:48 51°16.283 2°48.759 291.7 12 293 17
2006-07-18 07:37:53 51°16.29 2°48.735 292.5 12 294 17.1
2006-07-18 07:37:57 51°16.295 2°48.716 293.7 12 295 17
2006-07-18 07:38:02 51°16.302 2°48.692 294.4 12 295 17
2006-07-18 07:38:08 51°16.311 2°48.663 294.9 12 296 17.1
2006-07-18 07:38:12 51°16.317 2°48.644 295.4 12 296 17.1
2006-07-18 07:38:17 51°16.324 2°48.62 295.4 12 296 17
2006-07-18 07:38:23 51°16.333 2°48.592 295.5 12 296 17
2006-07-18 07:38:28 51°16.34 2°48.568 295.4 12 296 16.9
2006-07-18 07:38:33 51°16.348 2°48.544 295.2 12 296 16.9
2006-07-18 07:38:38 51°16.355 2°48.52 295 12 295 16.8
2006-07-18 07:38:43 51°16.362 2°48.497 294.6 11.9 295 16.7
2006-07-18 07:38:48 51°16.368 2°48.473 294.4 11.9 295 16.7
2006-07-18 07:38:53 51°16.376 2°48.449 294.3 11.9 295 16.5
2006-07-18 07:38:57 51°16.381 2°48.429 294.4 12 295 16.3
2006-07-18 07:39:02 51°16.388 2°48.405 294.4 12 295 16
2006-07-18 07:39:08 51°16.397 2°48.377 294.4 12 295 15.7
2006-07-18 07:39:13 51°16.404 2°48.353 294.4 12 295 15.2
2006-07-18 07:39:17 51°16.409 2°48.333 294.2 12 295 14.7
2006-07-18 07:39:23 51°16.418 2°48.305 294.3 12 295 14.2
2006-07-18 07:39:28 51°16.425 2°48.281 294.5 12 296 13.5
2006-07-18 07:39:32 51°16.431 2°48.262 295 12 296 13
2006-07-18 07:39:37 51°16.438 2°48.238 295.1 11.9 296 12.7
2006-07-18 07:39:43 51°16.446 2°48.21 294.7 11.9 295 12.4
2006-07-18 07:39:47 51°16.452 2°48.191 294.4 11.9 295 12.1
2006-07-18 07:39:53 51°16.461 2°48.162 294.7 11.9 296 11.7
2006-07-18 07:39:58 51°16.469 2°48.138 294.8 11.9 296 11.2
2006-07-18 07:40:03 51°16.476 2°48.114 294.6 11.9 296 10.6
2006-07-18 07:40:08 51°16.483 2°48.091 294.5 11.9 296 9.8
2006-07-18 07:40:13 51°16.49 2°48.068 294.4 11.9 296 9.2
2006-07-18 07:40:17 51°16.497 2°48.049 294.7 11.8 297 8.8
2006-07-18 07:40:22 51°16.504 2°48.026 295.2 11.8 298 8.4
2006-07-18 07:40:28 51°16.513 2°47.998 295.2 11.9 298 8.2
2006-07-18 07:40:33 51°16.521 2°47.974 294.8 11.9 297 8.2
2006-07-18 07:40:37 51°16.526 2°47.955 294 11.9 296 8.4
2006-07-18 07:40:43 51°16.535 2°47.927 293.2 11.9 295 8.8
2006-07-18 07:40:48 51°16.541 2°47.903 292.7 11.9 295 9.1
2006-07-18 07:40:52 51°16.547 2°47.883 291.9 11.9 294 9
2006-07-18 07:40:58 51°16.555 2°47.854 291.7 12 294 8.6
2006-07-18 07:41:03 51°16.562 2°47.83 291.6 12 294 8.5
2006-07-18 07:41:08 51°16.569 2°47.806 291.9 12 294 8.6
2006-07-18 07:41:13 51°16.576 2°47.782 293.1 12.1 296 8.8
2006-07-18 07:41:17 51°16.582 2°47.763 293.8 12.1 296 9
2006-07-18 07:41:22 51°16.59 2°47.739 294.5 12.1 297 9
2006-07-18 07:41:28 51°16.599 2°47.71 295 12.2 297 9
2006-07-18 07:41:33 51°16.607 2°47.687 295.4 12.2 297 9
2006-07-18 07:41:38 51°16.615 2°47.663 295.8 12.1 298 8.9
2006-07-18 07:41:43 51°16.623 2°47.639 295.7 12.1 298 8.9
2006-07-18 07:41:48 51°16.63 2°47.615 295.5 12.2 297 8.9
2006-07-18 07:41:53 51°16.638 2°47.591 295.4 12.2 297 9
2006-07-18 07:41:58 51°16.645 2°47.567 294.7 12.1 296 8.9
2006-07-18 07:42:02 51°16.651 2°47.548 294.1 12.1 296 8.9
2006-07-18 07:42:08 51°16.66 2°47.518 293.4 12.1 295 8.8
2006-07-18 07:42:13 51°16.666 2°47.494 292.4 12.1 294 9.8
2006-07-18 07:42:18 51°16.673 2°47.469 291.4 12.1 293 10.1
2006-07-18 07:42:23 51°16.678 2°47.444 290.3 12.1 292 10.3
2006-07-18 07:42:28 51°16.684 2°47.419 289.3 12.1 290 10.5
2006-07-18 07:42:32 51°16.689 2°47.399 288.8 12.1 290 10.6
2006-07-18 07:42:38 51°16.696 2°47.368 288.4 12.2 290 10.7
2006-07-18 07:42:43 51°16.701 2°47.343 288 12.2 289 10.8
2006-07-18 07:42:47 51°16.706 2°47.322 287.7 12.2 289 11
2006-07-18 07:42:52 51°16.711 2°47.297 287.8 12.2 290 11.1
2006-07-18 07:42:57 51°16.717 2°47.272 287.9 12.2 290 11.1
2006-07-18 07:43:02 51°16.722 2°47.246 288.6 12.2 290 11.3
2006-07-18 07:43:07 51°16.728 2°47.221 288.8 12.3 291 11.3
2006-07-18 07:43:13 51°16.736 2°47.19 289.5 12.3 291 11.4
2006-07-18 07:43:18 51°16.742 2°47.165 289.8 12.2 291 11.3
2006-07-18 07:43:23 51°16.748 2°47.14 290 12.2 291 11.3
2006-07-18 07:43:28 51°16.754 2°47.115 289.7 12.2 291 11.2
2006-07-18 07:43:33 51°16.76 2°47.089 289.6 12.2 290 11.2
2006-07-18 07:43:38 51°16.766 2°47.064 289.5 12.2 290 11.1
2006-07-18 07:43:43 51°16.771 2°47.038 288.6 12.2 289 11
2006-07-18 07:43:48 51°16.777 2°47.013 288.3 12.2 289 10.9
2006-07-18 07:43:53 51°16.782 2°46.987 288.2 12.2 289 10.7
2006-07-18 07:43:57 51°16.787 2°46.967 288.2 12.2 289 10.6
2006-07-18 07:44:00 51°16.79 2°46.952 287.9 12.1 289 10.4
2006-07-18 07:44:08 51°16.799 2°46.911 287.9 12.2 289 10.3
2006-07-18 07:44:13 51°16.804 2°46.886 288.1 12.1 289 10.4
2006-07-18 07:44:17 51°16.809 2°46.865 288.5 12.1 290 10.6
2006-07-18 07:44:22 51°16.815 2°46.84 289 12.2 290 10.5
2006-07-18 07:44:28 51°16.822 2°46.81 289.6 12.2 291 10.3
2006-07-18 07:44:33 51°16.828 2°46.785 290.1 12.2 291 10.1
2006-07-18 07:44:38 51°16.833 2°46.759 290.1 12.2 291 10
2006-07-18 07:44:43 51°16.84 2°46.734 289.8 12.2 291 10.1
2006-07-18 07:44:48 51°16.845 2°46.709 290.1 12.2 291 10.1
2006-07-18 07:44:53 51°16.851 2°46.684 290.1 12.2 291 10
2006-07-18 07:44:57 51°16.856 2°46.664 290 12.2 291 9.8
2006-07-18 07:45:01 51°16.861 2°46.643 289.7 12.2 290 9.5
2006-07-18 07:45:08 51°16.869 2°46.608 289.4 12.1 291 9
2006-07-18 07:45:13 51°16.875 2°46.583 289.1 12.1 289 8.7
2006-07-18 07:45:17 51°16.879 2°46.563 289.3 12 291 8.5
2006-07-18 07:45:22 51°16.885 2°46.538 289.4 11.9 290 8.1
2006-07-18 07:45:27 51°16.891 2°46.514 289.8 11.9 290 7.9
2006-07-18 07:45:32 51°16.897 2°46.489 289.7 11.9 292 9.1
2006-07-18 07:45:37 51°16.903 2°46.464 290.6 12 292 9.5
2006-07-18 07:45:43 51°16.911 2°46.434 290.9 12.3 292 9.7
2006-07-18 07:45:48 51°16.917 2°46.409 291.1 12.4 292 10
2006-07-18 07:45:53 51°16.923 2°46.383 291.2 12.4 292 10.2
2006-07-18 07:45:57 51°16.929 2°46.362 291 12.4 292 10.4
2006-07-18 07:46:02 51°16.935 2°46.337 290.4 12.4 291 10.5
2006-07-18 07:46:07 51°16.941 2°46.311 289.7 12.4 290 10.7
2006-07-18 07:46:13 51°16.948 2°46.28 289.5 12.4 291 10.8
2006-07-18 07:46:17 51°16.952 2°46.26 289.1 12.4 290 10.8
2006-07-18 07:46:23 51°16.959 2°46.229 288.8 12.4 290 10.9
2006-07-18 07:46:27 51°16.964 2°46.208 288.7 12.3 290 11.1
2006-07-18 07:46:32 51°16.97 2°46.182 288.7 12.4 290 11.3
2006-07-18 07:46:37 51°16.976 2°46.157 288.7 12.4 290 12
2006-07-18 07:46:41 51°16.98 2°46.136 288.8 12.4 291 12.6
2006-07-18 07:46:48 51°16.989 2°46.1 289.5 12.5 291 13.1
2006-07-18 07:46:52 51°16.994 2°46.08 290.1 12.5 292 13.3
2006-07-18 07:46:57 51°17.001 2°46.054 290.4 12.5 292 13.5
2006-07-18 07:47:02 51°17.007 2°46.029 291 12.5 292 13.7
2006-07-18 07:47:08 51°17.015 2°45.998 291.1 12.4 292 13.9
2006-07-18 07:47:13 51°17.022 2°45.972 290.9 12.4 292 14.1
2006-07-18 07:47:17 51°17.026 2°45.952 290.6 12.4 291 14
2006-07-18 07:47:20 51°17.03 2°45.936 290.3 12.4 291 13.9
2006-07-18 07:47:28 51°17.04 2°45.895 290.3 12.4 291 13.8
2006-07-18 07:47:32 51°17.045 2°45.875 290 12.4 291 13.8
2006-07-18 07:47:37 51°17.052 2°45.849 290 12.4 292 13.8
2006-07-18 07:47:43 51°17.059 2°45.819 290 12.4 291 14
2006-07-18 07:47:48 51°17.065 2°45.793 290.2 12.4 291 14.2
2006-07-18 07:47:52 51°17.07 2°45.772 290.2 12.4 291 14.4
2006-07-18 07:47:57 51°17.077 2°45.747 290.2 12.4 291 14.6
2006-07-18 07:48:02 51°17.083 2°45.722 290.5 12.4 292 14.7
2006-07-18 07:48:07 51°17.089 2°45.696 290.9 12.4 292 14.9
2006-07-18 07:48:13 51°17.097 2°45.665 290.9 12.4 292 15.1
2006-07-18 07:48:16 51°17.101 2°45.65 290.9 12.4 291 14.6
2006-07-18 07:48:20 51°17.106 2°45.63 290.9 12.4 292 14.3
2006-07-18 07:48:28 51°17.116 2°45.589 291 12.5 291 13.8
2006-07-18 07:48:33 51°17.123 2°45.563 290.9 12.5 292 13.4
2006-07-18 07:48:37 51°17.128 2°45.543 290.9 12.4 292 13.3
2006-07-18 07:48:42 51°17.134 2°45.517 290.9 12.4 292 14.1
2006-07-18 07:48:48 51°17.142 2°45.486 290.9 12.4 291 14.7
2006-07-18 07:48:53 51°17.148 2°45.461 290.3 12.4 291 14.9
2006-07-18 07:48:57 51°17.152 2°45.44 289.9 12.4 291 15.3
2006-07-18 07:49:02 51°17.159 2°45.415 289.9 12.4 291 15.4
2006-07-18 07:49:07 51°17.165 2°45.389 290.2 12.4 291 15.7
2006-07-18 07:49:12 51°17.171 2°45.363 290.5 12.4 292 15.4
2006-07-18 07:49:17 51°17.178 2°45.338 291 12.4 292 15.2
2006-07-18 07:49:23 51°17.186 2°45.307 291.2 12.4 292 15
2006-07-18 07:49:28 51°17.192 2°45.282 291.4 12.4 292 14.9
2006-07-18 07:49:33 51°17.199 2°45.257 291.5 12.4 292 15.2
2006-07-18 07:49:38 51°17.205 2°45.231 291.7 12.4 293 15.1
2006-07-18 07:49:43 51°17.212 2°45.206 291.7 12.4 293 15
2006-07-18 07:49:48 51°17.218 2°45.181 291.7 12.4 292 14.7
2006-07-18 07:49:52 51°17.224 2°45.161 291.5 12.4 293 14.7
2006-07-18 07:49:57 51°17.23 2°45.135 291.4 12.4 292 14.7
2006-07-18 07:50:01 51°17.235 2°45.115 291 12.4 292 14.5
2006-07-18 07:50:08 51°17.244 2°45.079 290.8 12.4 292 15
2006-07-18 07:50:13 51°17.25 2°45.054 290.7 12.3 292 15.9
2006-07-18 07:50:18 51°17.257 2°45.029 290.7 12.3 292 16.4
2006-07-18 07:50:23 51°17.263 2°45.003 290.7 12.3 291 16.8
2006-07-18 07:50:28 51°17.269 2°44.978 290.6 12.4 292 17.1
2006-07-18 07:50:33 51°17.276 2°44.952 290.3 12.4 291 17.2
2006-07-18 07:50:37 51°17.28 2°44.931 290.2 12.4 291 17.3
2006-07-18 07:50:42 51°17.286 2°44.906 289.9 12.3 291 17.3
2006-07-18 07:50:47 51°17.292 2°44.88 289.9 12.3 291 17.4
2006-07-18 07:50:53 51°17.3 2°44.85 290.1 12.4 291 17.5
2006-07-18 07:50:58 51°17.306 2°44.825 290.3 12.4 292 17.6
2006-07-18 07:51:03 51°17.313 2°44.799 290.7 12.4 292 17.7
2006-07-18 07:51:08 51°17.319 2°44.774 291.1 12.4 292 17.7
2006-07-18 07:51:13 51°17.326 2°44.749 291.6 12.4 293 17.8
2006-07-18 07:51:17 51°17.331 2°44.728 291.6 12.4 293 17.8
2006-07-18 07:51:23 51°17.339 2°44.698 291.7 12.4 292 17.7
2006-07-18 07:51:28 51°17.346 2°44.673 291.5 12.4 292 17.8
2006-07-18 07:51:32 51°17.351 2°44.652 290.9 12.4 292 17.7
2006-07-18 07:51:36 51°17.356 2°44.632 290.8 12.4 292 17.8
2006-07-18 07:51:43 51°17.365 2°44.596 291.1 12.4 292 17.7
2006-07-18 07:51:48 51°17.372 2°44.571 291.5 12.4 293 17.5
2006-07-18 07:51:53 51°17.379 2°44.546 292.6 12.4 294 17.5
2006-07-18 07:51:58 51°17.385 2°44.521 292.9 12.4 294 17.6
2006-07-18 07:52:03 51°17.393 2°44.496 293.3 12.4 294 17.4
2006-07-18 07:52:08 51°17.4 2°44.471 293.8 12.4 295 17.6
2006-07-18 07:52:13 51°17.407 2°44.446 293.9 12.4 295 17.7
2006-07-18 07:52:17 51°17.413 2°44.426 294 12.4 295 17.8
2006-07-18 07:52:20 51°17.417 2°44.411 294 12.4 294 18
2006-07-18 07:52:28 51°17.428 2°44.371 293.5 12.4 293 18
2006-07-18 07:52:33 51°17.435 2°44.346 292.8 12.4 293 18.1
2006-07-18 07:52:36 51°17.439 2°44.33 292.9 12.4 294 18.2
2006-07-18 07:52:43 51°17.449 2°44.295 293.1 12.5 294 18.1
2006-07-18 07:52:47 51°17.455 2°44.275 293.2 12.5 294 18.2
2006-07-18 07:52:53 51°17.463 2°44.245 293.4 12.4 294 18.1
2006-07-18 07:52:57 51°17.469 2°44.225 293.3 12.5 293 18.1
2006-07-18 07:53:01 51°17.474 2°44.204 292.8 12.5 293 18.1
2006-07-18 07:53:08 51°17.484 2°44.169 292.5 12.4 293 18.2
2006-07-18 07:53:13 51°17.491 2°44.144 292.8 12.4 294 18.4
2006-07-18 07:53:17 51°17.496 2°44.124 293.6 12.5 295 18.3
2006-07-18 07:53:20 51°17.501 2°44.109 293.9 12.5 295 18.3
2006-07-18 07:53:28 51°17.512 2°44.069 293.9 12.5 294 18.2
2006-07-18 07:53:33 51°17.519 2°44.044 293.9 12.5 294 18.1
2006-07-18 07:53:38 51°17.526 2°44.018 293.3 12.5 294 18
2006-07-18 07:53:43 51°17.534 2°43.994 293.3 12.5 295 17.7
2006-07-18 07:53:48 51°17.541 2°43.968 293.4 12.4 294 17.1
2006-07-18 07:53:53 51°17.548 2°43.943 293.4 12.4 294 17.8
2006-07-18 07:53:57 51°17.553 2°43.923 293.7 12.4 294 17.5
2006-07-18 07:54:02 51°17.56 2°43.898 293.3 12.4 294 16.8
2006-07-18 07:54:07 51°17.567 2°43.873 292.7 12.4 293 16
2006-07-18 07:54:13 51°17.575 2°43.843 292.6 12.4 293 15.1
2006-07-18 07:54:18 51°17.582 2°43.818 293 12.4 294 16.1
2006-07-18 07:54:23 51°17.589 2°43.792 293 12.4 293 15.6
2006-07-18 07:54:28 51°17.595 2°43.767 292.7 12.4 293 14.9
2006-07-18 07:54:33 51°17.603 2°43.742 293.1 12.4 294 14.5
2006-07-18 07:54:37 51°17.608 2°43.722 293.6 12.4 294 13.6
2006-07-18 07:54:42 51°17.616 2°43.698 294.4 12.3 295 12.7
2006-07-18 07:54:47 51°17.623 2°43.673 294.7 12.4 295 15
2006-07-18 07:54:53 51°17.632 2°43.644 295.5 12.4 297 16.5
2006-07-18 07:54:57 51°17.639 2°43.624 295.8 12.5 297 16.6
2006-07-18 07:55:00 51°17.644 2°43.609 296.8 12.6 298 15.4
2006-07-18 07:55:06 51°17.653 2°43.58 297.2 12.5 298 14.2
2006-07-18 07:55:12 51°17.663 2°43.551 297.1 12.4 297 15.2
2006-07-18 07:55:17 51°17.671 2°43.526 296.8 12.4 297 14.9
2006-07-18 07:55:23 51°17.68 2°43.497 296.1 12.4 296 14.3
2006-07-18 07:55:28 51°17.688 2°43.472 295.5 12.4 296 12.6
2006-07-18 07:55:33 51°17.695 2°43.448 295.3 12.3 296 13.4
2006-07-18 07:55:37 51°17.701 2°43.428 295 12.3 296 13.6
2006-07-18 07:55:43 51°17.709 2°43.398 294.8 12.3 295 12.7
2006-07-18 07:55:48 51°17.717 2°43.374 294.6 12.4 296 11.8
2006-07-18 07:55:52 51°17.723 2°43.354 295 12.3 296 13.1
2006-07-18 07:55:58 51°17.732 2°43.325 295.6 12.3 297 13.2
2006-07-18 07:56:03 51°17.74 2°43.301 296.5 12.4 297 13
2006-07-18 07:56:08 51°17.748 2°43.276 296.6 12.4 297 12.6
2006-07-18 07:56:12 51°17.754 2°43.257 296.1 12.4 296 12.2
2006-07-18 07:56:18 51°17.763 2°43.227 295.7 12.3 296 12.4
2006-07-18 07:56:23 51°17.771 2°43.203 295.4 12.4 297 13.2
2006-07-18 07:56:28 51°17.778 2°43.178 295.4 12.4 296 14.1
2006-07-18 07:56:33 51°17.786 2°43.154 295.8 12.4 298 14.6
2006-07-18 07:56:38 51°17.794 2°43.13 296.2 12.5 298 15.1
2006-07-18 07:56:43 51°17.803 2°43.105 296.5 12.5 298 16.1
2006-07-18 07:56:48 51°17.811 2°43.081 296.8 12.5 299 17.1
2006-07-18 07:56:52 51°17.818 2°43.062 297 12.5 299 18.8
2006-07-18 07:56:57 51°17.826 2°43.038 297 12.5 299 20.3
2006-07-18 07:57:01 51°17.833 2°43.018 297 12.5 299 21.2
2006-07-18 07:57:08 51°17.844 2°42.984 296.6 12.5 299 21.6
2006-07-18 07:57:12 51°17.851 2°42.965 296.3 12.5 298 21.9
2006-07-18 07:57:17 51°17.859 2°42.94 295.6 12.4 298 22.4
2006-07-18 07:57:23 51°17.868 2°42.911 294.7 12.4 296 22.7
2006-07-18 07:57:27 51°17.874 2°42.891 293.3 12.4 295 22.9
2006-07-18 07:57:32 51°17.881 2°42.866 292.5 12.4 294 23.3
2006-07-18 07:57:37 51°17.888 2°42.841 291.5 12.3 294 23.6
2006-07-18 07:57:42 51°17.895 2°42.816 291.3 12.3 294 23.9
2006-07-18 07:57:48 51°17.902 2°42.786 290.6 12.4 292 24.1
2006-07-18 07:57:53 51°17.909 2°42.761 290.3 12.3 293 24.6
2006-07-18 07:57:57 51°17.914 2°42.741 291 12.4 294 24.5
2006-07-18 07:58:03 51°17.923 2°42.711 292.5 12.4 295 24.8
2006-07-18 07:58:08 51°17.931 2°42.686 293.5 12.4 296 25
2006-07-18 07:58:13 51°17.939 2°42.662 294.6 12.4 297 25.1
2006-07-18 07:58:18 51°17.946 2°42.638 295.4 12.4 297 25
2006-07-18 07:58:23 51°17.954 2°42.613 295.4 12.5 298 25
2006-07-18 07:58:28 51°17.962 2°42.589 295.8 12.5 298 25.1
2006-07-18 07:58:33 51°17.97 2°42.564 296 12.4 298 25.1
2006-07-18 07:58:37 51°17.977 2°42.545 295.9 12.5 297 24.9
2006-07-18 07:58:43 51°17.986 2°42.516 295.5 12.4 297 24.8
2006-07-18 07:58:48 51°17.994 2°42.491 295.5 12.5 297 24.8
2006-07-18 07:58:53 51°18.002 2°42.467 295.5 12.5 297 24.9
2006-07-18 07:58:58 51°18.01 2°42.442 295.6 12.5 297 25.1
2006-07-18 07:59:03 51°18.018 2°42.417 295.4 12.5 297 25.5
2006-07-18 07:59:08 51°18.026 2°42.393 295.5 12.5 297 25.6
2006-07-18 07:59:12 51°18.032 2°42.373 296.5 12.5 299 25.8
2006-07-18 07:59:17 51°18.04 2°42.349 297.1 12.5 299 25.8
2006-07-18 07:59:23 51°18.051 2°42.32 298.1 12.5 300 25.6
2006-07-18 07:59:28 51°18.059 2°42.296 298 12.5 299 25.5
2006-07-18 07:59:33 51°18.068 2°42.272 298.8 12.5 300 25.4
2006-07-18 07:59:38 51°18.076 2°42.248 298.9 12.6 299 25.3
2006-07-18 07:59:42 51°18.083 2°42.229 298.7 12.5 300 25.2
2006-07-18 07:59:47 51°18.092 2°42.205 298.3 12.5 299 25.2
2006-07-18 07:59:53 51°18.102 2°42.176 298.2 12.5 299 25.2
2006-07-18 07:59:58 51°18.111 2°42.152 298.4 12.5 300 25
2006-07-18 08:00:02 51°18.118 2°42.132 298.8 12.6 300 25
2006-07-18 08:00:08 51°18.128 2°42.104 299.3 12.6 300 25
2006-07-18 08:00:12 51°18.135 2°42.084 299.5 12.6 300 25.1
2006-07-18 08:00:18 51°18.146 2°42.056 299.1 12.6 300 24.9
2006-07-18 08:00:23 51°18.154 2°42.031 299.1 12.5 300 25
2006-07-18 08:00:28 51°18.163 2°42.007 298.8 12.6 300 24.8
2006-07-18 08:00:33 51°18.172 2°41.983 298.8 12.5 300 24.8
2006-07-18 08:00:38 51°18.18 2°41.96 299.2 12.5 300 24.7
2006-07-18 08:00:43 51°18.189 2°41.936 299.2 12.5 300 24.8
2006-07-18 08:00:48 51°18.198 2°41.912 299 12.4 300 24.7
2006-07-18 08:00:53 51°18.206 2°41.888 298.5 12.4 299 24.7
2006-07-18 08:00:57 51°18.213 2°41.869 298.3 12.4 299 24.4
2006-07-18 08:01:03 51°18.223 2°41.84 298.5 12.4 300 24.4
2006-07-18 08:01:08 51°18.232 2°41.816 298.6 12.4 299 24.3
2006-07-18 08:01:13 51°18.24 2°41.793 299.1 12.4 301 24.3
2006-07-18 08:01:17 51°18.247 2°41.774 299.2 12.3 300 24.1
2006-07-18 08:01:23 51°18.257 2°41.746 299.3 12.4 300 24
2006-07-18 08:01:27 51°18.264 2°41.727 299.1 12.4 300 23.5
2006-07-18 08:01:33 51°18.274 2°41.698 299 12.4 300 22.9
2006-07-18 08:01:37 51°18.281 2°41.679 299 12.3 300 23.6
2006-07-18 08:01:43 51°18.291 2°41.651 298.8 12.3 300 23.7
2006-07-18 08:01:48 51°18.3 2°41.627 298.5 12.3 300 23.6
2006-07-18 08:01:52 51°18.306 2°41.608 298 12.3 299 23.2
2006-07-18 08:01:57 51°18.315 2°41.584 297.5 12.3 299 23.3
2006-07-18 08:02:03 51°18.324 2°41.555 297.4 12.3 298 23.4
2006-07-18 08:02:07 51°18.331 2°41.536 297.2 12.3 298 23.6
2006-07-18 08:02:13 51°18.341 2°41.507 297.4 12.3 299 22.7
2006-07-18 08:02:18 51°18.348 2°41.483 297.4 12.3 298 20.6
2006-07-18 08:02:22 51°18.355 2°41.464 297.4 12.3 298 21.8
2006-07-18 08:02:27 51°18.363 2°41.44 297.7 12.4 299 22.3
2006-07-18 08:02:32 51°18.371 2°41.416 298 12.4 298 22.4
2006-07-18 08:02:37 51°18.38 2°41.392 298.3 12.4 299 21.5
2006-07-18 08:02:43 51°18.39 2°41.363 298.5 12.5 299 21.6
2006-07-18 08:02:47 51°18.396 2°41.343 298.5 12.6 298 21.2
2006-07-18 08:02:52 51°18.405 2°41.319 298.5 12.5 299 20.4
2006-07-18 08:02:57 51°18.414 2°41.295 298.6 12.5 299 17.9
2006-07-18 08:03:03 51°18.424 2°41.266 299.1 12.5 301 19.2
2006-07-18 08:03:08 51°18.433 2°41.243 299.3 12.5 300 20.7
2006-07-18 08:03:12 51°18.44 2°41.224 299.6 12.4 301 20.7
2006-07-18 08:03:17 51°18.449 2°41.2 299.5 12.4 300 21.2
2006-07-18 08:03:23 51°18.459 2°41.172 299.2 12.4 301 21.5
2006-07-18 08:03:27 51°18.466 2°41.153 299.1 12.4 300 20.8
2006-07-18 08:03:33 51°18.476 2°41.124 298.4 12.3 300 19.9
2006-07-18 08:03:37 51°18.483 2°41.105 297.8 12.3 299 18.9
2006-07-18 08:03:43 51°18.492 2°41.076 297.1 12.3 299 17.1
2006-07-18 08:03:47 51°18.499 2°41.057 296.3 12.2 298 17.7
2006-07-18 08:03:53 51°18.508 2°41.029 296.1 12.2 298 17.4
2006-07-18 08:03:58 51°18.516 2°41.005 295.8 12.2 297 16.7
2006-07-18 08:04:03 51°18.523 2°40.981 295.3 12.2 297 15.4
2006-07-18 08:04:08 51°18.531 2°40.957 295.4 12.2 298 15.9
2006-07-18 08:04:12 51°18.538 2°40.939 297.2 12.1 300 17.2
2006-07-18 08:04:18 51°18.548 2°40.911 298.4 12.2 301 16.9
2006-07-18 08:04:22 51°18.555 2°40.892 299.2 12.3 301 14.2
2006-07-18 08:04:28 51°18.566 2°40.864 299.7 12.2 301 16
2006-07-18 08:04:32 51°18.573 2°40.846 299.9 12.2 302 17.8
2006-07-18 08:04:37 51°18.582 2°40.823 300.3 12.2 303 19.5
2006-07-18 08:04:43 51°18.594 2°40.796 300.7 12.3 303 20.4
2006-07-18 08:04:47 51°18.601 2°40.778 300.9 12.3 304 20
2006-07-18 08:04:53 51°18.612 2°40.751 301.2 12.3 304 17.3
2006-07-18 08:04:56 51°18.618 2°40.737 301 12.3 303 16.1
2006-07-18 08:05:03 51°18.63 2°40.704 300.3 12.3 301 18.3
2006-07-18 08:05:08 51°18.639 2°40.681 299.9 12.3 302 19.6
2006-07-18 08:05:12 51°18.647 2°40.662 299.4 12.4 301 19.9
2006-07-18 08:05:18 51°18.657 2°40.635 299.1 12.3 302 19.4
2006-07-18 08:05:22 51°18.664 2°40.616 299 12.3 301 17.7
2006-07-18 08:05:27 51°18.673 2°40.593 298.2 12.3 301 13.9
2006-07-18 08:05:33 51°18.684 2°40.565 298.4 12.2 302 12.7
2006-07-18 08:05:38 51°18.693 2°40.542 298.6 12.1 302 16
2006-07-18 08:05:43 51°18.702 2°40.52 298.5 12.1 302 15.8
2006-07-18 08:05:48 51°18.711 2°40.497 298.3 12.2 303 14.3
2006-07-18 08:05:53 51°18.72 2°40.474 298.8 12.2 303 16.9
2006-07-18 08:05:58 51°18.729 2°40.452 299.5 12.2 303 20.1
2006-07-18 08:06:03 51°18.739 2°40.429 300.4 12.3 304 21
2006-07-18 08:06:08 51°18.749 2°40.407 301 12.4 305 21.2
2006-07-18 08:06:12 51°18.756 2°40.389 301.6 12.3 305 21.4
2006-07-18 08:06:17 51°18.766 2°40.367 300.9 12.3 304 22.2
2006-07-18 08:06:22 51°18.775 2°40.344 300.2 12.3 303 22.2
2006-07-18 08:06:27 51°18.785 2°40.321 299.7 12.4 303 22.2
2006-07-18 08:06:32 51°18.794 2°40.297 299.4 12.4 302 23.2
2006-07-18 08:06:38 51°18.805 2°40.269 298.4 12.4 302 24.1
2006-07-18 08:06:42 51°18.813 2°40.251 298.3 12.4 302 24.3
2006-07-18 08:06:48 51°18.824 2°40.223 298.3 12.4 302 23.2
2006-07-18 08:06:52 51°18.832 2°40.204 299 12.4 302 23.9
2006-07-18 08:06:57 51°18.841 2°40.18 298.8 12.4 302 24.2
2006-07-18 08:07:03 51°18.851 2°40.153 298.9 12.5 302 24.6
2006-07-18 08:07:07 51°18.858 2°40.134 298.8 12.5 301 24.6
2006-07-18 08:07:13 51°18.87 2°40.105 298.5 12.5 302 23.8
2006-07-18 08:07:18 51°18.879 2°40.082 298.5 12.5 301 23.7
2006-07-18 08:07:23 51°18.888 2°40.059 299.3 12.5 303 24.3
2006-07-18 08:07:27 51°18.896 2°40.04 299.7 12.5 302 24.1
2006-07-18 08:07:32 51°18.906 2°40.016 299.7 12.5 303 24.3
2006-07-18 08:07:37 51°18.915 2°39.993 300.2 12.5 303 24.6
2006-07-18 08:07:43 51°18.926 2°39.965 300 12.5 303 24.2
2006-07-18 08:07:48 51°18.936 2°39.941 300 12.5 302 24.1
2006-07-18 08:07:53 51°18.945 2°39.918 299.5 12.5 302 24.3
2006-07-18 08:07:58 51°18.954 2°39.894 299.4 12.5 302 24.3
2006-07-18 08:08:03 51°18.962 2°39.871 298.9 12.4 301 24.3
2006-07-18 08:08:08 51°18.971 2°39.847 298.5 12.4 301 24.6
2006-07-18 08:08:13 51°18.979 2°39.824 297.5 12.5 299 24.6
2006-07-18 08:08:18 51°18.988 2°39.8 297.2 12.5 299 24.6
2006-07-18 08:08:23 51°18.996 2°39.776 297 12.4 300 24.8
2006-07-18 08:08:28 51°19.005 2°39.752 297.5 12.5 301 24.8
2006-07-18 08:08:33 51°19.014 2°39.728 298.6 12.5 302 24.9
2006-07-18 08:08:38 51°19.023 2°39.705 299.6 12.5 302 25
2006-07-18 08:08:43 51°19.033 2°39.681 299.7 12.6 302 25.2
2006-07-18 08:08:48 51°19.042 2°39.657 299.7 12.6 301 25.4
2006-07-18 08:08:52 51°19.049 2°39.637 299.1 12.6 300 25.5
2006-07-18 08:08:58 51°19.059 2°39.608 298.6 12.7 299 25.9
2006-07-18 08:09:03 51°19.068 2°39.583 298.1 12.7 299 26.1
2006-07-18 08:09:06 51°19.073 2°39.569 298.1 12.7 300 26.4
2006-07-18 08:09:13 51°19.085 2°39.534 298.8 12.8 300 26.6
2006-07-18 08:09:17 51°19.093 2°39.515 299.5 12.7 301 26.8
2006-07-18 08:09:23 51°19.104 2°39.486 299.7 12.7 301 27
2006-07-18 08:09:28 51°19.113 2°39.462 300 12.8 301 27.1
2006-07-18 08:09:32 51°19.12 2°39.443 300.3 12.8 301 27.3
2006-07-18 08:09:38 51°19.131 2°39.414 300.2 12.8 301 27.5
2006-07-18 08:09:42 51°19.138 2°39.394 300.1 12.8 300 27.8
2006-07-18 08:09:47 51°19.147 2°39.37 299.8 12.8 300 27.9
2006-07-18 08:09:53 51°19.157 2°39.34 299.5 12.8 300 28.2
2006-07-18 08:09:57 51°19.165 2°39.321 299.4 12.8 301 28.3
2006-07-18 08:10:03 51°19.175 2°39.291 299.8 12.8 300 28.5
2006-07-18 08:10:08 51°19.184 2°39.267 299.8 12.8 300 28.8
2006-07-18 08:10:12 51°19.191 2°39.248 299.7 12.8 300 29
2006-07-18 08:10:18 51°19.202 2°39.218 299.6 12.8 301 29.3
2006-07-18 08:10:22 51°19.21 2°39.199 299.7 12.8 301 29.5
2006-07-18 08:10:28 51°19.22 2°39.17 299.8 12.8 301 29.2
2006-07-18 08:10:32 51°19.228 2°39.15 300 12.8 301 29.2
2006-07-18 08:10:37 51°19.237 2°39.126 300.6 12.9 302 29.3
2006-07-18 08:10:43 51°19.249 2°39.097 300.9 12.9 302 29.2
2006-07-18 08:10:47 51°19.256 2°39.078 301.1 12.9 303 29.2
2006-07-18 08:10:53 51°19.268 2°39.049 301.1 12.8 302 29.2
2006-07-18 08:10:56 51°19.273 2°39.034 300.5 12.8 301 29.3
2006-07-18 08:11:03 51°19.285 2°39 299.4 12.7 299 29.4
2006-07-18 08:11:08 51°19.294 2°38.975 299 12.7 299 29.3
2006-07-18 08:11:12 51°19.3 2°38.955 297.9 12.6 296 29.1
2006-07-18 08:11:18 51°19.309 2°38.925 296.5 12.6 296 29.3
2006-07-18 08:11:23 51°19.316 2°38.9 295.8 12.6 296 29.2
2006-07-18 08:11:28 51°19.324 2°38.875 296.3 12.6 296 29.2
2006-07-18 08:11:32 51°19.33 2°38.855 296.8 12.6 297 29
2006-07-18 08:11:38 51°19.34 2°38.825 297.7 12.6 298 28.6
2006-07-18 08:11:43 51°19.349 2°38.801 298.8 12.7 299 28.8
2006-07-18 08:11:48 51°19.358 2°38.776 299.7 12.7 300 28.6
2006-07-18 08:11:53 51°19.367 2°38.752 300.3 12.7 300 28.6
2006-07-18 08:11:58 51°19.376 2°38.727 300.6 12.7 300 28.2
2006-07-18 08:12:03 51°19.385 2°38.703 301 12.8 301 28
2006-07-18 08:12:08 51°19.394 2°38.679 301.7 12.8 301 27.7
2006-07-18 08:12:12 51°19.402 2°38.66 301.9 12.8 302 27.4
2006-07-18 08:12:18 51°19.413 2°38.631 302.2 12.8 302 27.3
2006-07-18 08:12:23 51°19.423 2°38.607 302.6 12.8 302 26.9
2006-07-18 08:12:28 51°19.432 2°38.583 302.8 12.8 303 26.8
2006-07-18 08:12:33 51°19.442 2°38.559 303 12.9 303 26.5
2006-07-18 08:12:38 51°19.452 2°38.535 303.1 12.8 303 25.8
2006-07-18 08:12:43 51°19.461 2°38.511 303 12.9 303 25.6
2006-07-18 08:12:48 51°19.471 2°38.487 302.8 12.9 303 25.8
2006-07-18 08:12:52 51°19.478 2°38.468 302.4 12.9 302 25.5
2006-07-18 08:12:58 51°19.49 2°38.439 302.1 12.9 303 25
2006-07-18 08:13:03 51°19.499 2°38.415 302.1 12.9 302 25
2006-07-18 08:13:07 51°19.507 2°38.395 302 12.9 302 23.8
2006-07-18 08:13:12 51°19.517 2°38.371 302 12.9 302 24
2006-07-18 08:13:18 51°19.528 2°38.342 301.6 12.9 302 24.3
2006-07-18 08:13:23 51°19.537 2°38.317 301.3 12.9 301 24.2
2006-07-18 08:13:28 51°19.546 2°38.293 301.1 12.9 301 23.8
2006-07-18 08:13:32 51°19.554 2°38.274 301.1 12.8 301 23.4
2006-07-18 08:13:37 51°19.563 2°38.249 300.7 12.8 301 23.4
2006-07-18 08:13:43 51°19.574 2°38.221 300.9 12.7 301 23.8
2006-07-18 08:13:47 51°19.581 2°38.201 301.3 12.7 302 23.1
2006-07-18 08:13:53 51°19.592 2°38.173 301.8 12.6 302 22.1
2006-07-18 08:13:58 51°19.601 2°38.149 301.8 12.7 302 22.5
2006-07-18 08:14:03 51°19.611 2°38.126 301.9 12.6 302 23.8
2006-07-18 08:14:08 51°19.62 2°38.102 301.8 12.6 302 23.8
2006-07-18 08:14:13 51°19.629 2°38.078 301.6 12.6 302 23.4
2006-07-18 08:14:16 51°19.635 2°38.064 301.6 12.6 301 23.4
2006-07-18 08:14:23 51°19.647 2°38.031 300.9 12.6 301 23.3
2006-07-18 08:14:27 51°19.654 2°38.011 300.7 12.5 301 23
2006-07-18 08:14:33 51°19.665 2°37.983 301.1 12.6 301 22
2006-07-18 08:14:37 51°19.672 2°37.964 300.8 12.6 301 21.6
2006-07-18 08:14:43 51°19.683 2°37.935 301 12.6 301 23
2006-07-18 08:14:46 51°19.688 2°37.921 301.1 12.6 302 22.7
2006-07-18 08:14:53 51°19.702 2°37.888 301.9 12.6 303 21.6
2006-07-18 08:14:57 51°19.71 2°37.869 302.9 12.6 304 22.7
2006-07-18 08:15:03 51°19.722 2°37.842 303.6 12.6 305 23
2006-07-18 08:15:08 51°19.732 2°37.819 304.3 12.6 305 22.9
2006-07-18 08:15:13 51°19.742 2°37.796 304.4 12.6 305 23.2
2006-07-18 08:15:18 51°19.752 2°37.773 304.3 12.6 305 22.7
2006-07-18 08:15:23 51°19.762 2°37.75 304.1 12.6 304 22.4
2006-07-18 08:15:28 51°19.772 2°37.727 304 12.5 305 21.9
2006-07-18 08:15:32 51°19.779 2°37.709 303.8 12.5 304 22.2
2006-07-18 08:15:37 51°19.789 2°37.686 303.4 12.5 304 22.1
2006-07-18 08:15:43 51°19.801 2°37.658 303.6 12.5 304 22.4
2006-07-18 08:15:47 51°19.808 2°37.64 303.5 12.6 304 22.4
2006-07-18 08:15:52 51°19.818 2°37.617 303.7 12.5 305 22.1
2006-07-18 08:15:57 51°19.828 2°37.594 304.1 12.5 304 21.8
2006-07-18 08:16:03 51°19.84 2°37.566 303.5 12.6 304 21.4
2006-07-18 08:16:07 51°19.848 2°37.548 303.5 12.6 304 20.9
2006-07-18 08:16:12 51°19.857 2°37.524 303.4 12.6 304 21.3
2006-07-18 08:16:17 51°19.867 2°37.501 303.1 12.6 304 21.3
2006-07-18 08:16:23 51°19.878 2°37.475 303.2 12.3 304 22.1
2006-07-18 08:16:28 51°19.887 2°37.454 303.4 11.4 305 20.9
2006-07-18 08:16:32 51°19.894 2°37.439 304.1 10.9 305 22.2
2006-07-18 08:16:38 51°19.904 2°37.416 304 10.5 305 22.9
2006-07-18 08:16:43 51°19.912 2°37.398 304 10.1 305 22.8
2006-07-18 08:16:48 51°19.92 2°37.38 304 9.8 306 22.5
2006-07-18 08:16:52 51°19.926 2°37.367 304 9.4 306 22
2006-07-18 08:16:58 51°19.934 2°37.348 304 8.9 305 21.7
2006-07-18 08:17:03 51°19.941 2°37.333 303.6 8.4 306 21.2
2006-07-18 08:17:08 51°19.947 2°37.319 303.3 7.9 306 22.1
2006-07-18 08:17:13 51°19.953 2°37.306 303.3 7.7 307 22.8
2006-07-18 08:17:17 51°19.958 2°37.296 303.3 7.3 307 22.7
2006-07-18 08:17:22 51°19.964 2°37.283 302.8 7.1 306 23.1
2006-07-18 08:17:26 51°19.968 2°37.274 302.6 6.6 306 22.8
2006-07-18 08:17:32 51°19.974 2°37.26 302 6.2 306 23
2006-07-18 08:17:37 51°19.979 2°37.25 301.4 5.9 305 22.8
2006-07-18 08:17:42 51°19.984 2°37.239 300.3 5.7 306 22.7
2006-07-18 08:17:48 51°19.989 2°37.228 299.4 5.3 304 23
2006-07-18 08:17:52 51°19.992 2°37.221 297.5 4.9 304 22.9
2006-07-18 08:17:58 51°19.996 2°37.211 296.1 4.7 302 22.6
2006-07-18 08:18:03 51°19.998 2°37.203 293.5 4 301 22.8
2006-07-18 08:18:08 51°20.001 2°37.197 290.8 3.5 300 23
2006-07-18 08:18:13 51°20.002 2°37.192 286.3 2.5 299 23.1
2006-07-18 08:18:16 51°20.003 2°37.19 280.7 2 299 23
2006-07-18 08:18:23 51°20.005 2°37.186 273.7 1.3 307 23
2006-07-18 08:18:26 51°20.005 2°37.186 269.4 1 317 23.1
2006-07-18 08:18:32 51°20.007 2°37.185 264.8 0.8 -999 23.2
2006-07-18 08:18:38 51°20.008 2°37.187 261 0.8 20 23.2
2006-07-18 08:18:43 51°20.009 2°37.188 257.2 1.1 40 22.9
2006-07-18 08:18:47 51°20.01 2°37.19 255.1 1.1 43 22.8
2006-07-18 08:18:53 51°20.012 2°37.192 252.8 1.2 37 23.1
2006-07-18 08:18:57 51°20.012 2°37.193 250.7 1.1 41 23.1
2006-07-18 08:19:02 51°20.014 2°37.194 248.6 1.2 36 22.9
2006-07-18 08:19:08 51°20.015 2°37.196 246.7 1.1 38 22.9
2006-07-18 08:19:12 51°20.016 2°37.197 245.3 1.1 35 23.1
2006-07-18 08:19:18 51°20.017 2°37.199 243.9 1.1 36 -999
2006-07-18 08:19:23 51°20.019 2°37.2 242.2 1.1 37 -999
2006-07-18 08:19:29 51°20.02 2°37.202 241.3 1 35 -999
2006-07-18 08:19:33 51°20.021 2°37.203 240.4 1.1 34 -999
2006-07-18 08:19:39 51°20.022 2°37.205 240 1 34 -999
2006-07-18 08:19:43 51°20.023 2°37.206 239.5 1 35 -999
2006-07-18 08:19:48 51°20.025 2°37.207 239 1 36 -999
2006-07-18 08:19:53 51°20.026 2°37.208 238.8 1 32 -999
2006-07-18 08:19:58 51°20.027 2°37.209 238.7 1 32 5
2006-07-18 08:20:02 51°20.028 2°37.21 238.8 1 33 -999
2006-07-18 08:20:09 51°20.03 2°37.212 239 1 32 -999
2006-07-18 08:20:12 51°20.03 2°37.212 239.3 1 32 8.9
2006-07-18 08:20:19 51°20.032 2°37.214 239.5 0.9 30 -999
2006-07-18 08:20:24 51°20.033 2°37.215 240 0.9 30 -999
2006-07-18 08:20:29 51°20.034 2°37.216 240.2 1 33 5.6
2006-07-18 08:20:33 51°20.035 2°37.217 240.8 1 31 5.2
2006-07-18 08:20:37 51°20.036 2°37.218 241.3 0.9 32 4.8
2006-07-18 08:20:43 51°20.037 2°37.219 241.9 0.9 31 4.8
2006-07-18 08:20:48 51°20.038 2°37.22 242.5 0.9 32 4.7
2006-07-18 08:20:53 51°20.039 2°37.221 243.1 0.9 30 -999
2006-07-18 08:20:57 51°20.04 2°37.222 243.7 0.9 29 4.8
2006-07-18 08:21:03 51°20.041 2°37.223 244.2 0.9 29 22.4
2006-07-18 08:21:08 51°20.043 2°37.224 244.5 0.8 31 22.3
2006-07-18 08:21:13 51°20.043 2°37.225 245.1 0.8 32 22.1
2006-07-18 08:21:16 51°20.044 2°37.225 245.3 0.8 32 21.8
2006-07-18 08:21:23 51°20.045 2°37.227 245.7 0.8 27 21.3
2006-07-18 08:21:28 51°20.046 2°37.227 245.7 0.7 31 20.9
2006-07-18 08:21:33 51°20.047 2°37.228 245.8 0.7 27 20.7
2006-07-18 08:21:36 51°20.047 2°37.228 245.8 0.6 29 20.8
2006-07-18 08:21:42 51°20.048 2°37.229 245.3 0.6 28 21
2006-07-18 08:21:47 51°20.049 2°37.229 245 0.5 25 21.1
2006-07-18 08:21:53 51°20.05 2°37.23 244.3 0.5 21 21.1
2006-07-18 08:21:57 51°20.05 2°37.23 243.4 0.4 22 21.2
2006-07-18 08:22:02 51°20.051 2°37.23 242.4 0.4 16 21.2
2006-07-18 08:22:08 51°20.051 2°37.231 241.4 0.4 14 21.3
2006-07-18 08:22:13 51°20.052 2°37.231 240.3 0.3 9 21.4
2006-07-18 08:22:16 51°20.052 2°37.231 238.8 0.2 11 21.4
2006-07-18 08:22:23 51°20.052 2°37.231 237.5 0.2 350 21.4
2006-07-18 08:22:28 51°20.052 2°37.231 236 0.1 344 21.4
2006-07-18 08:22:33 51°20.052 2°37.23 234.6 0.2 322 21.4
2006-07-18 08:22:38 51°20.052 2°37.23 233.2 0.1 300 21.4
2006-07-18 08:22:43 51°20.052 2°37.23 232 0.1 290 21.4
2006-07-18 08:22:47 51°20.052 2°37.23 230.2 0.2 258 21.7
2006-07-18 08:22:52 51°20.052 2°37.229 228.7 0.2 263 21.3
2006-07-18 08:22:58 51°20.052 2°37.229 227.3 0.2 247 21.2
2006-07-18 08:23:03 51°20.052 2°37.228 225.8 0.2 249 21.2
2006-07-18 08:23:07 51°20.052 2°37.228 224.4 0.2 230 21.1
2006-07-18 08:23:12 51°20.052 2°37.227 223 0.2 243 21.1
2006-07-18 08:23:17 51°20.051 2°37.227 221.6 0.2 218 20.9
2006-07-18 08:23:23 51°20.051 2°37.227 220.4 0.2 218 20.8
2006-07-18 08:23:27 51°20.051 2°37.227 219 0.2 206 20.7
2006-07-18 08:23:33 51°20.05 2°37.226 217.9 0.2 228 20.6
2006-07-18 08:23:38 51°20.05 2°37.226 216.8 0.3 199 20.6
2006-07-18 08:23:43 51°20.05 2°37.225 215.8 0.2 218 20.6
2006-07-18 08:23:48 51°20.05 2°37.225 214.8 0.2 210 20.7
2006-07-18 08:23:52 51°20.049 2°37.225 213.8 0.2 199 20.7
2006-07-18 08:23:56 51°20.049 2°37.225 212.7 0.2 202 20.7
2006-07-18 08:24:02 51°20.049 2°37.225 211.9 0.2 205 20.6
2006-07-18 08:24:08 51°20.048 2°37.224 210.9 0.2 196 20.8
2006-07-18 08:24:13 51°20.048 2°37.225 210 0.2 192 20.8
2006-07-18 08:24:18 51°20.048 2°37.224 209.3 0.2 181 20.9
2006-07-18 08:24:23 51°20.047 2°37.225 208.7 0.2 184 20.9
2006-07-18 08:24:28 51°20.047 2°37.224 208 0.2 196 21
2006-07-18 08:24:33 51°20.047 2°37.225 207.4 0.2 180 21
2006-07-18 08:24:38 51°20.046 2°37.225 206.7 0.2 179 21.4
2006-07-18 08:24:42 51°20.046 2°37.225 206.1 0.2 180 21.2
2006-07-18 08:24:48 51°20.046 2°37.225 205.6 0.2 177 21.3
2006-07-18 08:24:52 51°20.046 2°37.225 205.3 0.2 177 21.4
2006-07-18 08:24:58 51°20.045 2°37.225 204.8 0.1 187 21.4
2006-07-18 08:25:03 51°20.045 2°37.225 204.5 0.1 179 21.7
2006-07-18 08:25:07 51°20.045 2°37.225 204.3 0.1 188 21.6
2006-07-18 08:25:12 51°20.045 2°37.225 204 0.1 179 21.6
2006-07-18 08:25:17 51°20.045 2°37.225 203.7 0.1 169 21.7
2006-07-18 08:25:22 51°20.044 2°37.225 203.5 0.1 187 21.8
2006-07-18 08:25:28 51°20.044 2°37.225 203.3 0.1 175 21.7
2006-07-18 08:25:33 51°20.044 2°37.225 203.2 0.1 145 21.8
2006-07-18 08:25:37 51°20.044 2°37.225 203.2 0.1 136 21.7
2006-07-18 08:25:41 51°20.044 2°37.225 203.1 0.1 157 21.7
2006-07-18 08:25:47 51°20.044 2°37.225 203.1 0.1 158 21.8
2006-07-18 08:25:52 51°20.044 2°37.225 203.1 -999 199 21.7
2006-07-18 08:25:57 51°20.044 2°37.225 203.1 -999 149 21.8
2006-07-18 08:26:02 51°20.044 2°37.225 203.1 -999 173 21.7
2006-07-18 08:26:07 51°20.044 2°37.225 203.2 -999 115 21.7
2006-07-18 08:26:13 51°20.044 2°37.225 203.2 -999 233 21.8
2006-07-18 08:26:17 51°20.044 2°37.225 203.5 -999 89 21.7
2006-07-18 08:26:23 51°20.043 2°37.225 203.6 -999 92 21.7
2006-07-18 08:26:28 51°20.043 2°37.225 203.8 -999 119 21.8